Atlas — SV6729 — position and weather

sailwx.info

Track history (hours):
 
Tides and Currents Weather Stations Pressure Air Temp Water Temp Dewpoint Dewpoint Depression Visibility Wind Speed Wind Dir Waves Ship Positions

Atlas

Last reported at 2014-Oct-31 03:30 UTC. Time now 2014-Oct-31 03:59 UTC.
Position N 38°02' E 023°30'.

Length 29 m; draft 5 m.

Type: Tug. MMSI: 239611000.

Date/timePositionNaut miles runAvg speedWind from/ knotsBaromVisibWave heightAir tempDewpointWater temp
2014-Oct-31 03:30N 38°02' E 023°30'0 0.0
2014-Oct-31 02:32N 38°02' E 023°30'0 0.0
2014-Oct-31 01:33N 38°02' E 023°30'0 0.0
2014-Oct-31 00:33N 38°02' E 023°30'0 0.0
2014-Oct-30 23:29N 38°02' E 023°30'0 0.0
2014-Oct-30 22:32N 38°02' E 023°30'0 0.0
2014-Oct-30 21:23N 38°02' E 023°30'0 0.0
2014-Oct-30 20:33N 38°02' E 023°30'0 0.0
2014-Oct-30 19:33N 38°02' E 023°30'0 0.0
2014-Oct-30 18:31N 38°02' E 023°30'0 0.0
2014-Oct-30 17:33N 38°02' E 023°30'0 0.0
2014-Oct-30 16:25N 38°02' E 023°30'4 4.8
2014-Oct-30 15:30N 37°58' E 023°33'3 2.6
2014-Oct-30 14:33N 37°57' E 023°36'1 0.8
2014-Oct-30 13:30N 37°57' E 023°37'0 0.0
2014-Oct-30 12:33N 37°57' E 023°37'0 0.0
2014-Oct-30 11:33N 37°57' E 023°37'0 0.0
2014-Oct-30 10:33N 37°57' E 023°37'0 0.0
2014-Oct-30 09:31N 37°57' E 023°37'0 0.0
2014-Oct-30 08:31N 37°57' E 023°37'0 0.0
2014-Oct-30 07:31N 37°57' E 023°37'0 0.0
2014-Oct-30 06:30N 37°57' E 023°37'0 0.0
2014-Oct-30 05:32N 37°57' E 023°37'0 0.0
2014-Oct-30 04:32N 37°57' E 023°37'0 0.0
2014-Oct-30 03:29N 37°57' E 023°37'0 0.0
2014-Oct-30 02:32N 37°57' E 023°37'0 0.0
2014-Oct-30 01:32N 37°57' E 023°37'0 0.0
2014-Oct-30 00:33N 37°57' E 023°37'0 0.0
2014-Oct-29 23:31N 37°57' E 023°37'0 0.0
2014-Oct-29 22:31N 37°57' E 023°37'0 0.0
2014-Oct-29 21:30N 37°57' E 023°37'0 0.0
2014-Oct-29 20:33N 37°57' E 023°37'0 0.2
2014-Oct-29 19:30N 37°57' E 023°37'1 0.8
2014-Oct-29 18:33N 37°57' E 023°36'4 4.4
2014-Oct-29 17:33N 37°60' E 023°33'3 1.4
2014-Oct-29 15:29N 38°02' E 023°30'6 6.6
2014-Oct-29 14:32N 37°57' E 023°35'0 0.1
2014-Oct-29 13:33N 37°57' E 023°35'1 1.0
2014-Oct-29 12:31N 37°57' E 023°37'0 0.0
2014-Oct-29 11:33N 37°57' E 023°37'0 0.0
2014-Oct-29 10:31N 37°57' E 023°37'0 0.0
2014-Oct-29 09:29N 37°57' E 023°37'1 1.4
2014-Oct-29 08:33N 37°57' E 023°35'0 0.3
2014-Oct-29 07:28N 37°57' E 023°35'1 0.8
2014-Oct-29 06:30N 37°57' E 023°36'0 0.4
2014-Oct-29 05:33N 37°57' E 023°36'1 0.7
2014-Oct-29 04:31N 37°57' E 023°37'0 0.0
2014-Oct-29 03:33N 37°57' E 023°37'0 0.0
2014-Oct-29 02:31N 37°57' E 023°37'1 1.5
2014-Oct-29 01:33N 37°56' E 023°38'2 1.6
2014-Oct-29 00:32N 37°57' E 023°36'1 0.6
2014-Oct-28 23:33N 37°57' E 023°37'0 0.0
2014-Oct-28 22:31N 37°57' E 023°37'0 0.0
2014-Oct-28 21:33N 37°57' E 023°37'0 0.0
2014-Oct-28 20:30N 37°57' E 023°37'0 0.4
2014-Oct-28 19:29N 37°57' E 023°36'0 0.2
2014-Oct-28 18:31N 37°57' E 023°36'7 6.6
2014-Oct-28 17:30N 38°02' E 023°30'0 0.2
2014-Oct-28 16:27N 38°02' E 023°30'0 0.0
2014-Oct-28 15:32N 38°02' E 023°30'0 0.0
2014-Oct-28 14:32N 38°02' E 023°30'0 0.0
2014-Oct-28 13:31N 38°02' E 023°30'0 0.0
2014-Oct-28 12:31N 38°02' E 023°30'0 0.0
2014-Oct-28 11:33N 38°02' E 023°30'0 0.0
2014-Oct-28 10:31N 38°02' E 023°30'0 0.0
2014-Oct-28 09:32N 38°02' E 023°30'0 0.0
2014-Oct-28 08:33N 38°02' E 023°30'0 0.0
2014-Oct-28 07:32N 38°02' E 023°30'0 0.0
2014-Oct-28 06:30N 38°02' E 023°30'0 0.1
2014-Oct-28 05:31N 38°02' E 023°30'0 0.1
2014-Oct-28 04:24N 38°02' E 023°30'4 4.5
2014-Oct-28 03:34N 37°59' E 023°33'3 3.1
2014-Oct-28 02:28N 37°57' E 023°37'0 0.0
2014-Oct-28 01:33N 37°57' E 023°37'0 0.0
2014-Oct-28 00:31N 37°57' E 023°37'0 0.0
2014-Oct-27 23:31N 37°57' E 023°37'0 0.0
2014-Oct-27 22:26N 37°57' E 023°37'0 0.5
2014-Oct-27 21:31N 37°57' E 023°36'0 0.5
2014-Oct-27 20:33N 37°57' E 023°36'0 0.0
2014-Oct-27 19:32N 37°57' E 023°36'1 0.8
2014-Oct-27 18:33N 37°57' E 023°37'1 0.8
2014-Oct-27 17:30N 37°57' E 023°37'0 0.0
2014-Oct-27 16:27N 37°57' E 023°37'0 0.0
2014-Oct-27 15:32N 37°57' E 023°37'1 0.7
2014-Oct-27 14:32N 37°57' E 023°36'1 0.8
2014-Oct-27 13:33N 37°57' E 023°37'0 0.0
2014-Oct-27 12:30N 37°57' E 023°37'0 0.0
2014-Oct-27 11:32N 37°57' E 023°37'0 0.0
2014-Oct-27 10:32N 37°57' E 023°37'0 0.0
2014-Oct-27 09:32N 37°57' E 023°37'0 0.0
2014-Oct-27 08:32N 37°57' E 023°37'0 0.0
2014-Oct-27 07:30N 37°57' E 023°37'0 0.0
2014-Oct-27 06:30N 37°57' E 023°37'0 0.0
2014-Oct-27 05:31N 37°57' E 023°37'0 0.0
2014-Oct-27 04:31N 37°57' E 023°37'0 0.0
2014-Oct-27 03:32N 37°57' E 023°37'0 0.5
2014-Oct-27 02:33N 37°57' E 023°36'0 0.1
2014-Oct-26 23:32N 37°57' E 023°37'2 2.5
2014-Oct-26 22:34N 37°57' E 023°33'5 5.0
2014-Oct-26 21:31N 38°02' E 023°31'0 0.1
2014-Oct-26 20:32N 38°02' E 023°31'0 0.0
2014-Oct-26 19:30N 38°02' E 023°31'0 0.0
2014-Oct-26 18:31N 38°02' E 023°31'5 4.7
2014-Oct-26 17:33N 37°58' E 023°33'4 4.4
2014-Oct-26 16:32N 37°56' E 023°38'2 1.6
2014-Oct-26 15:31N 37°57' E 023°37'0 0.0
2014-Oct-26 14:31N 37°57' E 023°37'0 0.0
2014-Oct-26 13:31N 37°57' E 023°37'0 0.0
2014-Oct-26 12:30N 37°57' E 023°37'0 0.0
2014-Oct-26 11:32N 37°57' E 023°37'0 0.0
2014-Oct-26 10:31N 37°57' E 023°37'0 0.0
2014-Oct-26 09:30N 37°57' E 023°37'0 0.0
2014-Oct-26 08:33N 37°57' E 023°37'0 0.0
2014-Oct-26 07:33N 37°57' E 023°37'0 0.0
2014-Oct-26 06:32N 37°57' E 023°37'0 0.0
2014-Oct-26 05:33N 37°57' E 023°37'0 0.0
2014-Oct-26 04:29N 37°57' E 023°37'0 0.0
2014-Oct-26 03:31N 37°57' E 023°37'0 0.0
2014-Oct-26 02:26N 37°57' E 023°37'0 0.0
2014-Oct-26 01:31N 37°57' E 023°37'0 0.0
2014-Oct-26 00:33N 37°57' E 023°37'0 0.0
2014-Oct-25 23:31N 37°57' E 023°37'0 0.0
2014-Oct-25 22:27N 37°57' E 023°37'0 0.0
2014-Oct-25 21:33N 37°57' E 023°37'0 0.0
2014-Oct-25 20:31N 37°57' E 023°37'0 0.0
2014-Oct-25 19:32N 37°57' E 023°37'1 0.7
2014-Oct-25 18:33N 37°57' E 023°36'0 0.1
2014-Oct-25 17:32N 37°57' E 023°36'1 0.5
2014-Oct-25 16:31N 37°57' E 023°37'0 0.0
2014-Oct-25 15:32N 37°57' E 023°37'0 0.0
2014-Oct-25 14:26N 37°57' E 023°37'0 0.2
2014-Oct-25 13:33N 37°57' E 023°36'1 1.1
2014-Oct-25 12:33N 37°56' E 023°36'1 1.2
2014-Oct-25 11:33N 37°58' E 023°36'0 0.2
2014-Oct-25 10:31N 37°57' E 023°37'0 0.2
2014-Oct-25 09:30N 37°57' E 023°36'0 0.2
2014-Oct-25 08:30N 37°57' E 023°37'0 0.0
2014-Oct-25 07:33N 37°57' E 023°37'1 1.0
2014-Oct-25 06:33N 37°57' E 023°35'1 1.0
2014-Oct-25 05:33N 37°56' E 023°36'1 0.9
2014-Oct-25 04:33N 37°57' E 023°35'1 1.2
2014-Oct-25 03:33N 37°57' E 023°36'0 0.4
2014-Oct-25 02:26N 37°57' E 023°37'0 0.0
2014-Oct-25 01:31N 37°57' E 023°37'0 0.0
2014-Oct-25 00:33N 37°57' E 023°37'0 0.0
2014-Oct-24 23:33N 37°57' E 023°37'0 0.0
2014-Oct-24 22:26N 37°57' E 023°37'0 0.0
2014-Oct-24 21:31N 37°57' E 023°37'0 0.0
2014-Oct-24 20:32N 37°57' E 023°37'0 0.0
2014-Oct-24 19:29N 37°57' E 023°37'0 0.0
2014-Oct-24 18:23N 37°57' E 023°37'0 0.0
2014-Oct-24 17:31N 37°57' E 023°37'2 1.9
2014-Oct-24 16:28N 37°58' E 023°34'0 0.0
2014-Oct-24 15:29N 37°58' E 023°34'2 1.7
2014-Oct-24 14:34N 37°57' E 023°36'0 0.4
2014-Oct-24 13:31N 37°57' E 023°37'2 2.0
2014-Oct-24 12:33N 37°58' E 023°34'0 0.0
2014-Oct-24 11:31N 37°58' E 023°34'2 2.0
2014-Oct-24 10:31N 37°57' E 023°37'0 0.0
2014-Oct-24 09:32N 37°57' E 023°37'0 0.0
2014-Oct-24 08:33N 37°57' E 023°37'0 0.0
2014-Oct-24 07:32N 37°57' E 023°37'0 0.0
2014-Oct-24 06:31N 37°57' E 023°37'0 0.0
2014-Oct-24 05:31N 37°57' E 023°37'0 0.0
2014-Oct-24 04:32N 37°57' E 023°37'0 0.0
2014-Oct-24 03:31N 37°57' E 023°37'0 0.0
2014-Oct-24 02:27N 37°57' E 023°37'0 0.0
2014-Oct-24 01:32N 37°57' E 023°37'0 0.0
2014-Oct-24 00:32N 37°57' E 023°37'0 0.0
2014-Oct-23 23:32N 37°57' E 023°37'0 0.0
2014-Oct-23 22:33N 37°57' E 023°37'0 0.0
2014-Oct-23 21:33N 37°57' E 023°37'0 0.0
2014-Oct-23 20:31N 37°57' E 023°37'1 1.0
2014-Oct-23 19:32N 37°57' E 023°35'1 1.0
2014-Oct-23 18:33N 37°57' E 023°37'0 0.0
2014-Oct-23 17:29N 37°57' E 023°37'0 0.0
2014-Oct-23 16:33N 37°57' E 023°37'2 1.9
2014-Oct-23 15:30N 37°57' E 023°34'2 2.1
2014-Oct-23 14:32N 37°57' E 023°37'1 0.5
2014-Oct-23 13:29N 37°57' E 023°36'1 0.6
2014-Oct-23 12:33N 37°57' E 023°37'0 0.0
2014-Oct-23 11:29N 37°57' E 023°37'0 0.0
2014-Oct-23 10:26N 37°57' E 023°37'0 0.0
2014-Oct-23 09:32N 37°57' E 023°37'0 0.0
2014-Oct-23 08:32N 37°57' E 023°37'0 0.0
2014-Oct-23 07:33N 37°57' E 023°37'0 0.0
2014-Oct-23 06:33N 37°57' E 023°37'0 0.0
2014-Oct-23 05:32N 37°57' E 023°37'0 0.0
2014-Oct-23 04:33N 37°57' E 023°37'0 0.0
2014-Oct-23 03:31N 37°57' E 023°37'0 0.0
2014-Oct-23 02:31N 37°57' E 023°37'0 0.0
2014-Oct-23 01:31N 37°57' E 023°37'0 0.0
2014-Oct-23 00:31N 37°57' E 023°37'0 0.0
2014-Oct-22 23:31N 37°57' E 023°37'0 0.0
2014-Oct-22 22:26N 37°57' E 023°37'0 0.0
2014-Oct-22 21:32N 37°57' E 023°37'0 0.0
2014-Oct-22 20:32N 37°57' E 023°37'0 0.0
2014-Oct-22 19:32N 37°57' E 023°37'0 0.0
2014-Oct-22 18:32N 37°57' E 023°37'0 0.0
2014-Oct-22 17:30N 37°57' E 023°37'0 0.0
2014-Oct-22 16:34N 37°57' E 023°37'0 0.0
2014-Oct-22 15:32N 37°57' E 023°37'0 0.0
2014-Oct-22 14:33N 37°57' E 023°37'0 0.0
2014-Oct-22 13:32N 37°57' E 023°37'0 0.0
2014-Oct-22 12:28N 37°57' E 023°37'0 0.0
2014-Oct-22 11:31N 37°57' E 023°37'0 0.0
2014-Oct-22 10:33N 37°57' E 023°37'0 0.0
2014-Oct-22 09:31N 37°57' E 023°37'0 0.0
2014-Oct-22 08:30N 37°57' E 023°37'0 0.0
2014-Oct-22 07:31N 37°57' E 023°37'0 0.0
2014-Oct-22 06:33N 37°57' E 023°37'0 0.0
2014-Oct-22 05:32N 37°57' E 023°37'0 0.0
2014-Oct-22 04:29N 37°57' E 023°37'0 0.0
2014-Oct-22 03:32N 37°57' E 023°37'0 0.0
2014-Oct-22 02:32N 37°57' E 023°37'0 0.0
2014-Oct-22 01:31N 37°57' E 023°37'0 0.0
2014-Oct-22 00:32N 37°57' E 023°37'0 0.0
2014-Oct-21 23:33N 37°57' E 023°37'0 0.0
2014-Oct-21 22:33N 37°57' E 023°37'0 0.0
2014-Oct-21 14:27N 37°57' E 023°37'  
Track history (hours):
 
Tides and Currents Weather Stations Pressure Air Temp Water Temp Dewpoint Dewpoint Depression Visibility Wind Speed Wind Dir Waves Ship Positions

Atlas

Last reported at 2014-Oct-31 03:30 UTC. Time now 2014-Oct-31 03:59 UTC.
Position N 38°02' E 023°30'.

Length 29 m; draft 5 m.

Type: Tug. MMSI: 239611000.

Date/timePositionNaut miles runAvg speedWind from/ knotsBaromVisibWave heightAir tempDewpointWater temp
2014-Oct-31 03:30N 38°02' E 023°30'0 0.0
2014-Oct-31 02:32N 38°02' E 023°30'0 0.0
2014-Oct-31 01:33N 38°02' E 023°30'0 0.0
2014-Oct-31 00:33N 38°02' E 023°30'0 0.0
2014-Oct-30 23:29N 38°02' E 023°30'0 0.0
2014-Oct-30 22:32N 38°02' E 023°30'0 0.0
2014-Oct-30 21:23N 38°02' E 023°30'0 0.0
2014-Oct-30 20:33N 38°02' E 023°30'0 0.0
2014-Oct-30 19:33N 38°02' E 023°30'0 0.0
2014-Oct-30 18:31N 38°02' E 023°30'0 0.0
2014-Oct-30 17:33N 38°02' E 023°30'0 0.0
2014-Oct-30 16:25N 38°02' E 023°30'4 4.8
2014-Oct-30 15:30N 37°58' E 023°33'3 2.6
2014-Oct-30 14:33N 37°57' E 023°36'1 0.8
2014-Oct-30 13:30N 37°57' E 023°37'0 0.0
2014-Oct-30 12:33N 37°57' E 023°37'0 0.0
2014-Oct-30 11:33N 37°57' E 023°37'0 0.0
2014-Oct-30 10:33N 37°57' E 023°37'0 0.0
2014-Oct-30 09:31N 37°57' E 023°37'0 0.0
2014-Oct-30 08:31N 37°57' E 023°37'0 0.0
2014-Oct-30 07:31N 37°57' E 023°37'0 0.0
2014-Oct-30 06:30N 37°57' E 023°37'0 0.0
2014-Oct-30 05:32N 37°57' E 023°37'0 0.0
2014-Oct-30 04:32N 37°57' E 023°37'0 0.0
2014-Oct-30 03:29N 37°57' E 023°37'0 0.0
2014-Oct-30 02:32N 37°57' E 023°37'0 0.0
2014-Oct-30 01:32N 37°57' E 023°37'0 0.0
2014-Oct-30 00:33N 37°57' E 023°37'0 0.0
2014-Oct-29 23:31N 37°57' E 023°37'0 0.0
2014-Oct-29 22:31N 37°57' E 023°37'0 0.0
2014-Oct-29 21:30N 37°57' E 023°37'0 0.0
2014-Oct-29 20:33N 37°57' E 023°37'0 0.2
2014-Oct-29 19:30N 37°57' E 023°37'1 0.8
2014-Oct-29 18:33N 37°57' E 023°36'4 4.4
2014-Oct-29 17:33N 37°60' E 023°33'3 1.4
2014-Oct-29 15:29N 38°02' E 023°30'6 6.6
2014-Oct-29 14:32N 37°57' E 023°35'0 0.1
2014-Oct-29 13:33N 37°57' E 023°35'1 1.0
2014-Oct-29 12:31N 37°57' E 023°37'0 0.0
2014-Oct-29 11:33N 37°57' E 023°37'0 0.0
2014-Oct-29 10:31N 37°57' E 023°37'0 0.0
2014-Oct-29 09:29N 37°57' E 023°37'1 1.4
2014-Oct-29 08:33N 37°57' E 023°35'0 0.3
2014-Oct-29 07:28N 37°57' E 023°35'1 0.8
2014-Oct-29 06:30N 37°57' E 023°36'0 0.4
2014-Oct-29 05:33N 37°57' E 023°36'1 0.7
2014-Oct-29 04:31N 37°57' E 023°37'0 0.0
2014-Oct-29 03:33N 37°57' E 023°37'0 0.0
2014-Oct-29 02:31N 37°57' E 023°37'1 1.5
2014-Oct-29 01:33N 37°56' E 023°38'2 1.6
2014-Oct-29 00:32N 37°57' E 023°36'1 0.6
2014-Oct-28 23:33N 37°57' E 023°37'0 0.0
2014-Oct-28 22:31N 37°57' E 023°37'0 0.0
2014-Oct-28 21:33N 37°57' E 023°37'0 0.0
2014-Oct-28 20:30N 37°57' E 023°37'0 0.4
2014-Oct-28 19:29N 37°57' E 023°36'0 0.2
2014-Oct-28 18:31N 37°57' E 023°36'7 6.6
2014-Oct-28 17:30N 38°02' E 023°30'0 0.2
2014-Oct-28 16:27N 38°02' E 023°30'0 0.0
2014-Oct-28 15:32N 38°02' E 023°30'0 0.0
2014-Oct-28 14:32N 38°02' E 023°30'0 0.0
2014-Oct-28 13:31N 38°02' E 023°30'0 0.0
2014-Oct-28 12:31N 38°02' E 023°30'0 0.0
2014-Oct-28 11:33N 38°02' E 023°30'0 0.0
2014-Oct-28 10:31N 38°02' E 023°30'0 0.0
2014-Oct-28 09:32N 38°02' E 023°30'0 0.0
2014-Oct-28 08:33N 38°02' E 023°30'0 0.0
2014-Oct-28 07:32N 38°02' E 023°30'0 0.0
2014-Oct-28 06:30N 38°02' E 023°30'0 0.1
2014-Oct-28 05:31N 38°02' E 023°30'0 0.1
2014-Oct-28 04:24N 38°02' E 023°30'4 4.5
2014-Oct-28 03:34N 37°59' E 023°33'3 3.1
2014-Oct-28 02:28N 37°57' E 023°37'0 0.0
2014-Oct-28 01:33N 37°57' E 023°37'0 0.0
2014-Oct-28 00:31N 37°57' E 023°37'0 0.0
2014-Oct-27 23:31N 37°57' E 023°37'0 0.0
2014-Oct-27 22:26N 37°57' E 023°37'0 0.5
2014-Oct-27 21:31N 37°57' E 023°36'0 0.5
2014-Oct-27 20:33N 37°57' E 023°36'0 0.0
2014-Oct-27 19:32N 37°57' E 023°36'1 0.8
2014-Oct-27 18:33N 37°57' E 023°37'1 0.8
2014-Oct-27 17:30N 37°57' E 023°37'0 0.0
2014-Oct-27 16:27N 37°57' E 023°37'0 0.0
2014-Oct-27 15:32N 37°57' E 023°37'1 0.7
2014-Oct-27 14:32N 37°57' E 023°36'1 0.8
2014-Oct-27 13:33N 37°57' E 023°37'0 0.0
2014-Oct-27 12:30N 37°57' E 023°37'0 0.0
2014-Oct-27 11:32N 37°57' E 023°37'0 0.0
2014-Oct-27 10:32N 37°57' E 023°37'0 0.0
2014-Oct-27 09:32N 37°57' E 023°37'0 0.0
2014-Oct-27 08:32N 37°57' E 023°37'0 0.0
2014-Oct-27 07:30N 37°57' E 023°37'0 0.0
2014-Oct-27 06:30N 37°57' E 023°37'0 0.0
2014-Oct-27 05:31N 37°57' E 023°37'0 0.0
2014-Oct-27 04:31N 37°57' E 023°37'0 0.0
2014-Oct-27 03:32N 37°57' E 023°37'0 0.5
2014-Oct-27 02:33N 37°57' E 023°36'0 0.1
2014-Oct-26 23:32N 37°57' E 023°37'2 2.5
2014-Oct-26 22:34N 37°57' E 023°33'5 5.0
2014-Oct-26 21:31N 38°02' E 023°31'0 0.1
2014-Oct-26 20:32N 38°02' E 023°31'0 0.0
2014-Oct-26 19:30N 38°02' E 023°31'0 0.0
2014-Oct-26 18:31N 38°02' E 023°31'5 4.7
2014-Oct-26 17:33N 37°58' E 023°33'4 4.4
2014-Oct-26 16:32N 37°56' E 023°38'2 1.6
2014-Oct-26 15:31N 37°57' E 023°37'0 0.0
2014-Oct-26 14:31N 37°57' E 023°37'0 0.0
2014-Oct-26 13:31N 37°57' E 023°37'0 0.0
2014-Oct-26 12:30N 37°57' E 023°37'0 0.0
2014-Oct-26 11:32N 37°57' E 023°37'0 0.0
2014-Oct-26 10:31N 37°57' E 023°37'0 0.0
2014-Oct-26 09:30N 37°57' E 023°37'0 0.0
2014-Oct-26 08:33N 37°57' E 023°37'0 0.0
2014-Oct-26 07:33N 37°57' E 023°37'0 0.0
2014-Oct-26 06:32N 37°57' E 023°37'0 0.0
2014-Oct-26 05:33N 37°57' E 023°37'0 0.0
2014-Oct-26 04:29N 37°57' E 023°37'0 0.0
2014-Oct-26 03:31N 37°57' E 023°37'0 0.0
2014-Oct-26 02:26N 37°57' E 023°37'0 0.0
2014-Oct-26 01:31N 37°57' E 023°37'0 0.0
2014-Oct-26 00:33N 37°57' E 023°37'0 0.0
2014-Oct-25 23:31N 37°57' E 023°37'0 0.0
2014-Oct-25 22:27N 37°57' E 023°37'0 0.0
2014-Oct-25 21:33N 37°57' E 023°37'0 0.0
2014-Oct-25 20:31N 37°57' E 023°37'0 0.0
2014-Oct-25 19:32N 37°57' E 023°37'1 0.7
2014-Oct-25 18:33N 37°57' E 023°36'0 0.1
2014-Oct-25 17:32N 37°57' E 023°36'1 0.5
2014-Oct-25 16:31N 37°57' E 023°37'0 0.0
2014-Oct-25 15:32N 37°57' E 023°37'0 0.0
2014-Oct-25 14:26N 37°57' E 023°37'0 0.2
2014-Oct-25 13:33N 37°57' E 023°36'1 1.1
2014-Oct-25 12:33N 37°56' E 023°36'1 1.2
2014-Oct-25 11:33N 37°58' E 023°36'0 0.2
2014-Oct-25 10:31N 37°57' E 023°37'0 0.2
2014-Oct-25 09:30N 37°57' E 023°36'0 0.2
2014-Oct-25 08:30N 37°57' E 023°37'0 0.0
2014-Oct-25 07:33N 37°57' E 023°37'1 1.0
2014-Oct-25 06:33N 37°57' E 023°35'1 1.0
2014-Oct-25 05:33N 37°56' E 023°36'1 0.9
2014-Oct-25 04:33N 37°57' E 023°35'1 1.2
2014-Oct-25 03:33N 37°57' E 023°36'0 0.4
2014-Oct-25 02:26N 37°57' E 023°37'0 0.0
2014-Oct-25 01:31N 37°57' E 023°37'0 0.0
2014-Oct-25 00:33N 37°57' E 023°37'0 0.0
2014-Oct-24 23:33N 37°57' E 023°37'0 0.0
2014-Oct-24 22:26N 37°57' E 023°37'0 0.0
2014-Oct-24 21:31N 37°57' E 023°37'0 0.0
2014-Oct-24 20:32N 37°57' E 023°37'0 0.0
2014-Oct-24 19:29N 37°57' E 023°37'0 0.0
2014-Oct-24 18:23N 37°57' E 023°37'0 0.0
2014-Oct-24 17:31N 37°57' E 023°37'2 1.9
2014-Oct-24 16:28N 37°58' E 023°34'0 0.0
2014-Oct-24 15:29N 37°58' E 023°34'2 1.7
2014-Oct-24 14:34N 37°57' E 023°36'0 0.4
2014-Oct-24 13:31N 37°57' E 023°37'2 2.0
2014-Oct-24 12:33N 37°58' E 023°34'0 0.0
2014-Oct-24 11:31N 37°58' E 023°34'2 2.0
2014-Oct-24 10:31N 37°57' E 023°37'0 0.0
2014-Oct-24 09:32N 37°57' E 023°37'0 0.0
2014-Oct-24 08:33N 37°57' E 023°37'0 0.0
2014-Oct-24 07:32N 37°57' E 023°37'0 0.0
2014-Oct-24 06:31N 37°57' E 023°37'0 0.0
2014-Oct-24 05:31N 37°57' E 023°37'0 0.0
2014-Oct-24 04:32N 37°57' E 023°37'0 0.0
2014-Oct-24 03:31N 37°57' E 023°37'0 0.0
2014-Oct-24 02:27N 37°57' E 023°37'0 0.0
2014-Oct-24 01:32N 37°57' E 023°37'0 0.0
2014-Oct-24 00:32N 37°57' E 023°37'0 0.0
2014-Oct-23 23:32N 37°57' E 023°37'0 0.0
2014-Oct-23 22:33N 37°57' E 023°37'0 0.0
2014-Oct-23 21:33N 37°57' E 023°37'0 0.0
2014-Oct-23 20:31N 37°57' E 023°37'1 1.0
2014-Oct-23 19:32N 37°57' E 023°35'1 1.0
2014-Oct-23 18:33N 37°57' E 023°37'0 0.0
2014-Oct-23 17:29N 37°57' E 023°37'0 0.0
2014-Oct-23 16:33N 37°57' E 023°37'2 1.9
2014-Oct-23 15:30N 37°57' E 023°34'2 2.1
2014-Oct-23 14:32N 37°57' E 023°37'1 0.5
2014-Oct-23 13:29N 37°57' E 023°36'1 0.6
2014-Oct-23 12:33N 37°57' E 023°37'0 0.0
2014-Oct-23 11:29N 37°57' E 023°37'0 0.0
2014-Oct-23 10:26N 37°57' E 023°37'0 0.0
2014-Oct-23 09:32N 37°57' E 023°37'0 0.0
2014-Oct-23 08:32N 37°57' E 023°37'0 0.0
2014-Oct-23 07:33N 37°57' E 023°37'0 0.0
2014-Oct-23 06:33N 37°57' E 023°37'0 0.0
2014-Oct-23 05:32N 37°57' E 023°37'0 0.0
2014-Oct-23 04:33N 37°57' E 023°37'0 0.0
2014-Oct-23 03:31N 37°57' E 023°37'0 0.0
2014-Oct-23 02:31N 37°57' E 023°37'0 0.0
2014-Oct-23 01:31N 37°57' E 023°37'0 0.0
2014-Oct-23 00:31N 37°57' E 023°37'0 0.0
2014-Oct-22 23:31N 37°57' E 023°37'0 0.0
2014-Oct-22 22:26N 37°57' E 023°37'0 0.0
2014-Oct-22 21:32N 37°57' E 023°37'0 0.0
2014-Oct-22 20:32N 37°57' E 023°37'0 0.0
2014-Oct-22 19:32N 37°57' E 023°37'0 0.0
2014-Oct-22 18:32N 37°57' E 023°37'0 0.0
2014-Oct-22 17:30N 37°57' E 023°37'0 0.0
2014-Oct-22 16:34N 37°57' E 023°37'0 0.0
2014-Oct-22 15:32N 37°57' E 023°37'0 0.0
2014-Oct-22 14:33N 37°57' E 023°37'0 0.0
2014-Oct-22 13:32N 37°57' E 023°37'0 0.0
2014-Oct-22 12:28N 37°57' E 023°37'0 0.0
2014-Oct-22 11:31N 37°57' E 023°37'0 0.0
2014-Oct-22 10:33N 37°57' E 023°37'0 0.0
2014-Oct-22 09:31N 37°57' E 023°37'0 0.0
2014-Oct-22 08:30N 37°57' E 023°37'0 0.0
2014-Oct-22 07:31N 37°57' E 023°37'0 0.0
2014-Oct-22 06:33N 37°57' E 023°37'0 0.0
2014-Oct-22 05:32N 37°57' E 023°37'0 0.0
2014-Oct-22 04:29N 37°57' E 023°37'0 0.0
2014-Oct-22 03:32N 37°57' E 023°37'0 0.0
2014-Oct-22 02:32N 37°57' E 023°37'0 0.0
2014-Oct-22 01:31N 37°57' E 023°37'0 0.0
2014-Oct-22 00:32N 37°57' E 023°37'0 0.0
2014-Oct-21 23:33N 37°57' E 023°37'0 0.0
2014-Oct-21 22:33N 37°57' E 023°37'0 0.0
2014-Oct-21 14:27N 37°57' E 023°37'  

Dump ship's entire track history